Terminal Aerodrome Forecast
Issued by NWS

Current Version | Previous Version | Text Only | Print | Product List | Glossary On
Versions: 1 2 3 4 5 6 7 8 9 10 11 12 13 14 15 16
000
FTUS41 KLWX 191439 AAA
TAFMTN
TAF AMD
KMTN 191439Z 1915/2012 29022G42KT P6SM FEW040 SCT200
     FM191700 29021G39KT P6SM BKN050 BKN200
     FM192000 29019G31KT P6SM BKN050 BKN150
     FM192300 28015G24KT P6SM FEW050 SCT200
     FM200300 28010G17KT P6SM FEW050 SCT250=

USA.gov is the U.S. government's official web portal to all federal, state and local government web resources and services.